sensor_id;sensor_type;location;lat;lon;timestamp;P1;durP1;ratioP1;P2;durP2;ratioP2
10335;SDS011;5213;53.548;9.930;2023-05-07T00:01:48;11.27;;;10.13;;
10335;SDS011;5213;53.548;9.930;2023-05-07T00:04:14;12.52;;;10.90;;
10335;SDS011;5213;53.548;9.930;2023-05-07T00:06:40;11.40;;;10.27;;
10335;SDS011;5213;53.548;9.930;2023-05-07T00:09:06;12.38;;;10.75;;
10335;SDS011;5213;53.548;9.930;2023-05-07T00:11:32;12.05;;;10.63;;
10335;SDS011;5213;53.548;9.930;2023-05-07T00:13:59;12.02;;;10.77;;
10335;SDS011;5213;53.548;9.930;2023-05-07T00:16:25;12.68;;;11.15;;
10335;SDS011;5213;53.548;9.930;2023-05-07T00:18:51;12.40;;;11.10;;
10335;SDS011;5213;53.548;9.930;2023-05-07T00:21:17;12.23;;;11.02;;
10335;SDS011;5213;53.548;9.930;2023-05-07T00:23:43;12.73;;;11.30;;
10335;SDS011;5213;53.548;9.930;2023-05-07T00:26:09;11.85;;;10.65;;
10335;SDS011;5213;53.548;9.930;2023-05-07T00:28:35;10.55;;;9.45;;
10335;SDS011;5213;53.548;9.930;2023-05-07T00:31:01;10.18;;;8.68;;
10335;SDS011;5213;53.548;9.930;2023-05-07T00:33:27;9.88;;;8.88;;
10335;SDS011;5213;53.548;9.930;2023-05-07T00:35:53;9.70;;;8.70;;
10335;SDS011;5213;53.548;9.930;2023-05-07T00:38:19;12.45;;;9.07;;
10335;SDS011;5213;53.548;9.930;2023-05-07T00:40:45;9.70;;;8.05;;
10335;SDS011;5213;53.548;9.930;2023-05-07T00:43:11;10.50;;;9.40;;
10335;SDS011;5213;53.548;9.930;2023-05-07T00:45:37;9.70;;;8.63;;
10335;SDS011;5213;53.548;9.930;2023-05-07T00:48:04;10.70;;;9.02;;
10335;SDS011;5213;53.548;9.930;2023-05-07T00:50:30;10.00;;;9.00;;
10335;SDS011;5213;53.548;9.930;2023-05-07T00:52:56;10.25;;;9.10;;
10335;SDS011;5213;53.548;9.930;2023-05-07T00:55:23;10.20;;;9.18;;
10335;SDS011;5213;53.548;9.930;2023-05-07T00:57:49;8.77;;;7.97;;
10335;SDS011;5213;53.548;9.930;2023-05-07T01:00:16;10.02;;;8.80;;
10335;SDS011;5213;53.548;9.930;2023-05-07T01:02:43;9.93;;;8.43;;
10335;SDS011;5213;53.548;9.930;2023-05-07T01:05:10;8.93;;;8.13;;
10335;SDS011;5213;53.548;9.930;2023-05-07T01:07:37;8.90;;;7.97;;
10335;SDS011;5213;53.548;9.930;2023-05-07T01:10:04;8.63;;;7.82;;
10335;SDS011;5213;53.548;9.930;2023-05-07T01:12:31;8.77;;;7.88;;
10335;SDS011;5213;53.548;9.930;2023-05-07T01:14:57;8.68;;;7.88;;
10335;SDS011;5213;53.548;9.930;2023-05-07T01:17:23;8.82;;;7.93;;
10335;SDS011;5213;53.548;9.930;2023-05-07T01:19:49;8.85;;;8.05;;
10335;SDS011;5213;53.548;9.930;2023-05-07T01:22:16;9.20;;;8.27;;
10335;SDS011;5213;53.548;9.930;2023-05-07T01:24:46;10.05;;;8.57;;
10335;SDS011;5213;53.548;9.930;2023-05-07T01:27:12;9.15;;;8.05;;
10335;SDS011;5213;53.548;9.930;2023-05-07T01:29:38;9.57;;;8.65;;
10335;SDS011;5213;53.548;9.930;2023-05-07T01:32:05;8.93;;;8.10;;
10335;SDS011;5213;53.548;9.930;2023-05-07T01:34:31;9.10;;;8.30;;
10335;SDS011;5213;53.548;9.930;2023-05-07T01:36:58;8.73;;;7.93;;
10335;SDS011;5213;53.548;9.930;2023-05-07T01:39:25;9.30;;;8.38;;
10335;SDS011;5213;53.548;9.930;2023-05-07T01:41:52;8.57;;;7.70;;
10335;SDS011;5213;53.548;9.930;2023-05-07T01:44:19;8.63;;;7.88;;
10335;SDS011;5213;53.548;9.930;2023-05-07T01:46:45;8.45;;;7.68;;
10335;SDS011;5213;53.548;9.930;2023-05-07T01:49:11;8.10;;;7.40;;
10335;SDS011;5213;53.548;9.930;2023-05-07T01:51:38;8.15;;;7.45;;
10335;SDS011;5213;53.548;9.930;2023-05-07T01:54:05;7.82;;;7.10;;
10335;SDS011;5213;53.548;9.930;2023-05-07T01:56:31;8.00;;;7.30;;
10335;SDS011;5213;53.548;9.930;2023-05-07T01:58:57;7.78;;;7.13;;
10335;SDS011;5213;53.548;9.930;2023-05-07T02:01:23;9.00;;;7.10;;
10335;SDS011;5213;53.548;9.930;2023-05-07T02:03:49;7.25;;;6.65;;
10335;SDS011;5213;53.548;9.930;2023-05-07T02:06:15;7.38;;;6.75;;
10335;SDS011;5213;53.548;9.930;2023-05-07T02:08:41;7.45;;;6.80;;
10335;SDS011;5213;53.548;9.930;2023-05-07T02:11:07;7.68;;;7.07;;
10335;SDS011;5213;53.548;9.930;2023-05-07T02:13:33;7.70;;;7.00;;
10335;SDS011;5213;53.548;9.930;2023-05-07T02:16:00;8.43;;;7.63;;
10335;SDS011;5213;53.548;9.930;2023-05-07T02:18:26;8.43;;;7.63;;
10335;SDS011;5213;53.548;9.930;2023-05-07T02:20:52;8.57;;;7.75;;
10335;SDS011;5213;53.548;9.930;2023-05-07T02:23:18;8.40;;;7.60;;
10335;SDS011;5213;53.548;9.930;2023-05-07T02:25:44;8.95;;;8.13;;
10335;SDS011;5213;53.548;9.930;2023-05-07T02:28:10;8.57;;;7.78;;
10335;SDS011;5213;53.548;9.930;2023-05-07T02:30:37;9.27;;;8.43;;
10335;SDS011;5213;53.548;9.930;2023-05-07T02:33:03;9.07;;;8.18;;
10335;SDS011;5213;53.548;9.930;2023-05-07T02:35:29;8.35;;;7.65;;
10335;SDS011;5213;53.548;9.930;2023-05-07T02:37:55;8.23;;;7.53;;
10335;SDS011;5213;53.548;9.930;2023-05-07T02:40:21;8.60;;;7.68;;
10335;SDS011;5213;53.548;9.930;2023-05-07T02:42:47;9.00;;;8.20;;
10335;SDS011;5213;53.548;9.930;2023-05-07T02:45:13;9.23;;;8.32;;
10335;SDS011;5213;53.548;9.930;2023-05-07T02:47:39;8.90;;;8.10;;
10335;SDS011;5213;53.548;9.930;2023-05-07T02:50:05;11.40;;;9.10;;
10335;SDS011;5213;53.548;9.930;2023-05-07T02:52:31;9.88;;;8.88;;
10335;SDS011;5213;53.548;9.930;2023-05-07T02:54:57;9.30;;;8.40;;
10335;SDS011;5213;53.548;9.930;2023-05-07T02:57:23;11.50;;;9.27;;
10335;SDS011;5213;53.548;9.930;2023-05-07T02:59:49;11.50;;;9.30;;
10335;SDS011;5213;53.548;9.930;2023-05-07T03:02:15;11.45;;;8.80;;
10335;SDS011;5213;53.548;9.930;2023-05-07T03:04:41;10.18;;;8.60;;
10335;SDS011;5213;53.548;9.930;2023-05-07T03:07:07;9.82;;;8.80;;
10335;SDS011;5213;53.548;9.930;2023-05-07T03:09:33;10.82;;;8.30;;
10335;SDS011;5213;53.548;9.930;2023-05-07T03:11:59;11.20;;;8.85;;
10335;SDS011;5213;53.548;9.930;2023-05-07T03:14:26;9.88;;;8.82;;
10335;SDS011;5213;53.548;9.930;2023-05-07T03:16:52;10.45;;;8.80;;
10335;SDS011;5213;53.548;9.930;2023-05-07T03:19:18;9.75;;;8.75;;
10335;SDS011;5213;53.548;9.930;2023-05-07T03:21:44;10.65;;;9.18;;
10335;SDS011;5213;53.548;9.930;2023-05-07T03:24:10;10.60;;;9.50;;
10335;SDS011;5213;53.548;9.930;2023-05-07T03:26:36;9.95;;;8.95;;
10335;SDS011;5213;53.548;9.930;2023-05-07T03:29:02;11.23;;;9.57;;
10335;SDS011;5213;53.548;9.930;2023-05-07T03:31:28;10.20;;;9.15;;
10335;SDS011;5213;53.548;9.930;2023-05-07T03:33:56;10.93;;;9.23;;
10335;SDS011;5213;53.548;9.930;2023-05-07T03:36:22;10.40;;;9.40;;
10335;SDS011;5213;53.548;9.930;2023-05-07T03:38:49;10.65;;;9.45;;
10335;SDS011;5213;53.548;9.930;2023-05-07T03:41:15;11.27;;;10.13;;
10335;SDS011;5213;53.548;9.930;2023-05-07T03:43:41;11.88;;;9.77;;
10335;SDS011;5213;53.548;9.930;2023-05-07T03:46:07;10.63;;;9.52;;
10335;SDS011;5213;53.548;9.930;2023-05-07T03:48:33;11.68;;;9.90;;
10335;SDS011;5213;53.548;9.930;2023-05-07T03:50:59;11.80;;;10.50;;
10335;SDS011;5213;53.548;9.930;2023-05-07T03:53:25;11.43;;;9.63;;
10335;SDS011;5213;53.548;9.930;2023-05-07T03:55:51;10.90;;;9.80;;
10335;SDS011;5213;53.548;9.930;2023-05-07T03:58:17;11.10;;;9.70;;
10335;SDS011;5213;53.548;9.930;2023-05-07T04:00:43;11.93;;;9.85;;
10335;SDS011;5213;53.548;9.930;2023-05-07T04:03:09;10.45;;;9.45;;
10335;SDS011;5213;53.548;9.930;2023-05-07T04:05:35;10.55;;;9.52;;
10335;SDS011;5213;53.548;9.930;2023-05-07T04:08:01;10.48;;;9.48;;
10335;SDS011;5213;53.548;9.930;2023-05-07T04:10:28;11.05;;;9.95;;
10335;SDS011;5213;53.548;9.930;2023-05-07T04:12:55;10.38;;;9.32;;
10335;SDS011;5213;53.548;9.930;2023-05-07T04:15:21;10.60;;;9.52;;
10335;SDS011;5213;53.548;9.930;2023-05-07T04:17:47;10.43;;;9.00;;
10335;SDS011;5213;53.548;9.930;2023-05-07T04:20:14;10.35;;;9.40;;
10335;SDS011;5213;53.548;9.930;2023-05-07T04:22:40;9.63;;;8.73;;
10335;SDS011;5213;53.548;9.930;2023-05-07T04:25:07;10.25;;;9.20;;
10335;SDS011;5213;53.548;9.930;2023-05-07T04:27:34;10.18;;;9.07;;
10335;SDS011;5213;53.548;9.930;2023-05-07T04:30:00;11.13;;;9.40;;
10335;SDS011;5213;53.548;9.930;2023-05-07T04:32:27;10.35;;;9.32;;
10335;SDS011;5213;53.548;9.930;2023-05-07T04:34:54;10.25;;;9.00;;
10335;SDS011;5213;53.548;9.930;2023-05-07T04:37:20;10.02;;;9.02;;
10335;SDS011;5213;53.548;9.930;2023-05-07T04:39:46;9.88;;;8.77;;
10335;SDS011;5213;53.548;9.930;2023-05-07T04:42:15;9.68;;;8.68;;
10335;SDS011;5213;53.548;9.930;2023-05-07T04:44:42;10.15;;;9.07;;
10335;SDS011;5213;53.548;9.930;2023-05-07T04:47:08;10.25;;;9.23;;
10335;SDS011;5213;53.548;9.930;2023-05-07T04:49:34;11.05;;;8.52;;
10335;SDS011;5213;53.548;9.930;2023-05-07T04:52:00;10.63;;;9.50;;
10335;SDS011;5213;53.548;9.930;2023-05-07T04:54:28;9.77;;;8.77;;
10335;SDS011;5213;53.548;9.930;2023-05-07T04:56:54;10.10;;;8.57;;
10335;SDS011;5213;53.548;9.930;2023-05-07T04:59:20;10.05;;;8.95;;
10335;SDS011;5213;53.548;9.930;2023-05-07T05:01:46;9.55;;;8.55;;
10335;SDS011;5213;53.548;9.930;2023-05-07T05:04:12;10.18;;;8.98;;
10335;SDS011;5213;53.548;9.930;2023-05-07T05:06:38;9.52;;;8.63;;
10335;SDS011;5213;53.548;9.930;2023-05-07T05:09:05;8.98;;;8.07;;
10335;SDS011;5213;53.548;9.930;2023-05-07T05:11:31;9.68;;;8.68;;
10335;SDS011;5213;53.548;9.930;2023-05-07T05:13:58;9.20;;;8.30;;
10335;SDS011;5213;53.548;9.930;2023-05-07T05:16:24;9.32;;;8.40;;
10335;SDS011;5213;53.548;9.930;2023-05-07T05:18:50;8.50;;;7.60;;
10335;SDS011;5213;53.548;9.930;2023-05-07T05:21:17;8.80;;;7.93;;
10335;SDS011;5213;53.548;9.930;2023-05-07T05:23:43;8.80;;;7.90;;
10335;SDS011;5213;53.548;9.930;2023-05-07T05:26:09;8.95;;;8.05;;
10335;SDS011;5213;53.548;9.930;2023-05-07T05:28:35;8.93;;;8.02;;
10335;SDS011;5213;53.548;9.930;2023-05-07T05:31:01;8.75;;;7.88;;
10335;SDS011;5213;53.548;9.930;2023-05-07T05:33:27;7.97;;;7.28;;
10335;SDS011;5213;53.548;9.930;2023-05-07T05:35:55;9.30;;;8.30;;
10335;SDS011;5213;53.548;9.930;2023-05-07T05:38:30;9.23;;;7.65;;
10335;SDS011;5213;53.548;9.930;2023-05-07T05:40:56;8.70;;;7.80;;
10335;SDS011;5213;53.548;9.930;2023-05-07T05:43:23;10.00;;;9.00;;
10335;SDS011;5213;53.548;9.930;2023-05-07T05:45:49;9.23;;;8.32;;
10335;SDS011;5213;53.548;9.930;2023-05-07T05:48:15;9.60;;;8.70;;
10335;SDS011;5213;53.548;9.930;2023-05-07T05:50:41;9.57;;;8.45;;
10335;SDS011;5213;53.548;9.930;2023-05-07T05:53:07;8.75;;;7.95;;
10335;SDS011;5213;53.548;9.930;2023-05-07T05:55:33;8.82;;;8.02;;
10335;SDS011;5213;53.548;9.930;2023-05-07T05:58:00;8.80;;;8.00;;
10335;SDS011;5213;53.548;9.930;2023-05-07T06:00:26;8.77;;;7.88;;
10335;SDS011;5213;53.548;9.930;2023-05-07T06:02:52;9.18;;;8.27;;
10335;SDS011;5213;53.548;9.930;2023-05-07T06:05:18;8.05;;;7.32;;
10335;SDS011;5213;53.548;9.930;2023-05-07T06:07:44;8.20;;;7.43;;
10335;SDS011;5213;53.548;9.930;2023-05-07T06:10:10;8.48;;;7.68;;
10335;SDS011;5213;53.548;9.930;2023-05-07T06:12:36;8.63;;;7.82;;
10335;SDS011;5213;53.548;9.930;2023-05-07T06:15:02;8.38;;;7.57;;
10335;SDS011;5213;53.548;9.930;2023-05-07T06:17:28;8.23;;;7.43;;
10335;SDS011;5213;53.548;9.930;2023-05-07T06:19:55;8.50;;;7.70;;
10335;SDS011;5213;53.548;9.930;2023-05-07T06:22:21;7.93;;;7.22;;
10335;SDS011;5213;53.548;9.930;2023-05-07T06:24:47;8.35;;;7.55;;
10335;SDS011;5213;53.548;9.930;2023-05-07T06:27:13;8.77;;;7.88;;
10335;SDS011;5213;53.548;9.930;2023-05-07T06:29:39;8.60;;;7.80;;
10335;SDS011;5213;53.548;9.930;2023-05-07T06:32:06;8.25;;;7.45;;
10335;SDS011;5213;53.548;9.930;2023-05-07T06:34:32;8.25;;;7.45;;
10335;SDS011;5213;53.548;9.930;2023-05-07T06:36:58;8.38;;;7.57;;
10335;SDS011;5213;53.548;9.930;2023-05-07T06:39:25;8.40;;;7.60;;
10335;SDS011;5213;53.548;9.930;2023-05-07T06:41:51;8.57;;;7.70;;
10335;SDS011;5213;53.548;9.930;2023-05-07T06:44:17;8.65;;;7.78;;
10335;SDS011;5213;53.548;9.930;2023-05-07T06:46:43;8.18;;;7.35;;
10335;SDS011;5213;53.548;9.930;2023-05-07T06:49:09;8.50;;;7.68;;
10335;SDS011;5213;53.548;9.930;2023-05-07T06:51:35;8.80;;;7.90;;
10335;SDS011;5213;53.548;9.930;2023-05-07T06:54:01;8.63;;;7.25;;
10335;SDS011;5213;53.548;9.930;2023-05-07T06:56:27;8.75;;;7.95;;
10335;SDS011;5213;53.548;9.930;2023-05-07T06:58:53;8.75;;;7.95;;
10335;SDS011;5213;53.548;9.930;2023-05-07T07:01:19;10.60;;;8.73;;
10335;SDS011;5213;53.548;9.930;2023-05-07T07:03:45;8.77;;;7.97;;
10335;SDS011;5213;53.548;9.930;2023-05-07T07:06:11;9.43;;;8.52;;
10335;SDS011;5213;53.548;9.930;2023-05-07T07:08:37;8.75;;;7.95;;
10335;SDS011;5213;53.548;9.930;2023-05-07T07:11:04;8.30;;;7.50;;
10335;SDS011;5213;53.548;9.930;2023-05-07T07:13:30;8.90;;;7.82;;
10335;SDS011;5213;53.548;9.930;2023-05-07T07:15:56;7.88;;;7.00;;
10335;SDS011;5213;53.548;9.930;2023-05-07T07:18:22;8.57;;;7.60;;
10335;SDS011;5213;53.548;9.930;2023-05-07T07:20:48;8.35;;;7.55;;
10335;SDS011;5213;53.548;9.930;2023-05-07T07:23:14;8.25;;;7.38;;
10335;SDS011;5213;53.548;9.930;2023-05-07T07:25:40;7.93;;;7.18;;
10335;SDS011;5213;53.548;9.930;2023-05-07T07:28:06;7.68;;;6.97;;
10335;SDS011;5213;53.548;9.930;2023-05-07T07:30:32;8.18;;;6.93;;
10335;SDS011;5213;53.548;9.930;2023-05-07T07:32:58;7.32;;;6.63;;
10335;SDS011;5213;53.548;9.930;2023-05-07T07:35:28;6.65;;;6.05;;
10335;SDS011;5213;53.548;9.930;2023-05-07T07:37:54;7.25;;;6.32;;
10335;SDS011;5213;53.548;9.930;2023-05-07T07:40:20;7.22;;;6.53;;
10335;SDS011;5213;53.548;9.930;2023-05-07T07:42:46;7.72;;;6.50;;
10335;SDS011;5213;53.548;9.930;2023-05-07T07:45:12;6.85;;;6.25;;
10335;SDS011;5213;53.548;9.930;2023-05-07T07:47:38;7.82;;;6.97;;
10335;SDS011;5213;53.548;9.930;2023-05-07T07:50:05;7.43;;;6.70;;
10335;SDS011;5213;53.548;9.930;2023-05-07T07:52:31;6.95;;;6.25;;
10335;SDS011;5213;53.548;9.930;2023-05-07T07:54:57;7.00;;;6.30;;
10335;SDS011;5213;53.548;9.930;2023-05-07T07:57:23;7.25;;;6.55;;
10335;SDS011;5213;53.548;9.930;2023-05-07T07:59:49;6.72;;;6.13;;
10335;SDS011;5213;53.548;9.930;2023-05-07T08:02:15;7.07;;;6.40;;
10335;SDS011;5213;53.548;9.930;2023-05-07T08:04:41;6.88;;;6.28;;
10335;SDS011;5213;53.548;9.930;2023-05-07T08:07:08;6.30;;;5.80;;
10335;SDS011;5213;53.548;9.930;2023-05-07T08:09:35;6.55;;;5.88;;
10335;SDS011;5213;53.548;9.930;2023-05-07T08:12:00;6.68;;;6.07;;
10335;SDS011;5213;53.548;9.930;2023-05-07T08:14:26;6.72;;;5.90;;
10335;SDS011;5213;53.548;9.930;2023-05-07T08:16:53;6.50;;;6.00;;
10335;SDS011;5213;53.548;9.930;2023-05-07T08:19:19;6.35;;;5.78;;
10335;SDS011;5213;53.548;9.930;2023-05-07T08:21:46;7.07;;;6.10;;
10335;SDS011;5213;53.548;9.930;2023-05-07T08:24:13;5.72;;;5.28;;
10335;SDS011;5213;53.548;9.930;2023-05-07T08:26:39;6.75;;;6.15;;
10335;SDS011;5213;53.548;9.930;2023-05-07T08:29:05;6.35;;;5.75;;
10335;SDS011;5213;53.548;9.930;2023-05-07T08:31:31;6.80;;;6.05;;
10335;SDS011;5213;53.548;9.930;2023-05-07T08:33:57;6.43;;;5.93;;
10335;SDS011;5213;53.548;9.930;2023-05-07T08:36:24;6.30;;;5.70;;
10335;SDS011;5213;53.548;9.930;2023-05-07T08:38:50;7.32;;;5.50;;
10335;SDS011;5213;53.548;9.930;2023-05-07T08:41:16;5.97;;;5.38;;
10335;SDS011;5213;53.548;9.930;2023-05-07T08:43:43;5.80;;;5.22;;
10335;SDS011;5213;53.548;9.930;2023-05-07T08:46:10;5.68;;;5.18;;
10335;SDS011;5213;53.548;9.930;2023-05-07T08:48:37;6.25;;;5.75;;
10335;SDS011;5213;53.548;9.930;2023-05-07T08:51:03;5.95;;;5.45;;
10335;SDS011;5213;53.548;9.930;2023-05-07T08:53:29;6.35;;;5.75;;
10335;SDS011;5213;53.548;9.930;2023-05-07T08:55:55;6.03;;;5.53;;
10335;SDS011;5213;53.548;9.930;2023-05-07T08:58:21;5.78;;;5.35;;
10335;SDS011;5213;53.548;9.930;2023-05-07T09:00:47;5.53;;;4.97;;
10335;SDS011;5213;53.548;9.930;2023-05-07T09:03:13;6.53;;;5.82;;
10335;SDS011;5213;53.548;9.930;2023-05-07T09:05:39;5.78;;;5.28;;
10335;SDS011;5213;53.548;9.930;2023-05-07T09:08:06;6.20;;;5.70;;
10335;SDS011;5213;53.548;9.930;2023-05-07T09:10:33;7.45;;;6.22;;
10335;SDS011;5213;53.548;9.930;2023-05-07T09:12:59;6.63;;;6.13;;
10335;SDS011;5213;53.548;9.930;2023-05-07T09:15:26;6.30;;;5.78;;
10335;SDS011;5213;53.548;9.930;2023-05-07T09:17:52;7.07;;;6.38;;
10335;SDS011;5213;53.548;9.930;2023-05-07T09:20:18;7.32;;;6.63;;
10335;SDS011;5213;53.548;9.930;2023-05-07T09:22:43;6.30;;;5.78;;
10335;SDS011;5213;53.548;9.930;2023-05-07T09:25:10;6.10;;;5.53;;
10335;SDS011;5213;53.548;9.930;2023-05-07T09:27:37;6.32;;;5.82;;
10335;SDS011;5213;53.548;9.930;2023-05-07T09:30:04;6.47;;;5.80;;
10335;SDS011;5213;53.548;9.930;2023-05-07T09:32:33;7.03;;;6.32;;
10335;SDS011;5213;53.548;9.930;2023-05-07T09:35:00;6.20;;;5.70;;
10335;SDS011;5213;53.548;9.930;2023-05-07T09:37:26;6.65;;;6.05;;
10335;SDS011;5213;53.548;9.930;2023-05-07T09:39:52;5.88;;;5.40;;
10335;SDS011;5213;53.548;9.930;2023-05-07T09:42:22;6.47;;;5.97;;
10335;SDS011;5213;53.548;9.930;2023-05-07T09:44:49;5.88;;;5.38;;
10335;SDS011;5213;53.548;9.930;2023-05-07T09:47:19;6.50;;;6.00;;
10335;SDS011;5213;53.548;9.930;2023-05-07T09:49:49;5.97;;;5.43;;
10335;SDS011;5213;53.548;9.930;2023-05-07T09:52:15;6.18;;;5.03;;
10335;SDS011;5213;53.548;9.930;2023-05-07T09:54:41;6.18;;;5.57;;
10335;SDS011;5213;53.548;9.930;2023-05-07T09:57:09;5.95;;;5.45;;
10335;SDS011;5213;53.548;9.930;2023-05-07T09:59:37;6.10;;;5.60;;
10335;SDS011;5213;53.548;9.930;2023-05-07T10:02:03;5.97;;;5.47;;
10335;SDS011;5213;53.548;9.930;2023-05-07T10:04:30;5.38;;;4.97;;
10335;SDS011;5213;53.548;9.930;2023-05-07T10:06:56;5.65;;;5.18;;
10335;SDS011;5213;53.548;9.930;2023-05-07T10:09:23;6.63;;;5.50;;
10335;SDS011;5213;53.548;9.930;2023-05-07T10:11:50;6.10;;;5.43;;
10335;SDS011;5213;53.548;9.930;2023-05-07T10:14:16;5.68;;;5.03;;
10335;SDS011;5213;53.548;9.930;2023-05-07T10:16:42;6.07;;;5.57;;
10335;SDS011;5213;53.548;9.930;2023-05-07T10:19:09;5.95;;;5.22;;
10335;SDS011;5213;53.548;9.930;2023-05-07T10:21:36;6.50;;;5.93;;
10335;SDS011;5213;53.548;9.930;2023-05-07T10:26:30;7.05;;;6.40;;
10335;SDS011;5213;53.548;9.930;2023-05-07T10:28:59;7.20;;;6.60;;
10335;SDS011;5213;53.548;9.930;2023-05-07T10:33:59;7.13;;;5.20;;
10335;SDS011;5213;53.548;9.930;2023-05-07T10:36:26;7.30;;;5.20;;
10335;SDS011;5213;53.548;9.930;2023-05-07T10:38:53;5.97;;;5.47;;
10335;SDS011;5213;53.548;9.930;2023-05-07T10:41:19;6.10;;;5.60;;
10335;SDS011;5213;53.548;9.930;2023-05-07T10:43:46;5.97;;;5.47;;
10335;SDS011;5213;53.548;9.930;2023-05-07T10:46:18;6.00;;;5.40;;
10335;SDS011;5213;53.548;9.930;2023-05-07T10:51:31;6.00;;;5.38;;
10335;SDS011;5213;53.548;9.930;2023-05-07T10:56:36;8.10;;;5.55;;
10335;SDS011;5213;53.548;9.930;2023-05-07T11:01:59;5.25;;;4.75;;
10335;SDS011;5213;53.548;9.930;2023-05-07T11:04:28;5.95;;;5.18;;
10335;SDS011;5213;53.548;9.930;2023-05-07T11:15:04;5.50;;;5.10;;
10335;SDS011;5213;53.548;9.930;2023-05-07T11:17:31;5.15;;;4.68;;
10335;SDS011;5213;53.548;9.930;2023-05-07T11:19:59;5.53;;;4.82;;
10335;SDS011;5213;53.548;9.930;2023-05-07T11:25:02;5.07;;;4.68;;
10335;SDS011;5213;53.548;9.930;2023-05-07T11:27:29;5.78;;;4.82;;
10335;SDS011;5213;53.548;9.930;2023-05-07T11:29:55;5.30;;;4.90;;
10335;SDS011;5213;53.548;9.930;2023-05-07T11:32:25;5.28;;;4.63;;
10335;SDS011;5213;53.548;9.930;2023-05-07T11:34:52;5.20;;;4.70;;
10335;SDS011;5213;53.548;9.930;2023-05-07T11:37:18;5.00;;;4.60;;
10335;SDS011;5213;53.548;9.930;2023-05-07T11:39:45;5.38;;;4.97;;
10335;SDS011;5213;53.548;9.930;2023-05-07T11:44:55;5.15;;;4.72;;
10335;SDS011;5213;53.548;9.930;2023-05-07T11:47:21;5.03;;;4.50;;
10335;SDS011;5213;53.548;9.930;2023-05-07T11:49:48;5.13;;;4.72;;
10335;SDS011;5213;53.548;9.930;2023-05-07T11:52:14;5.68;;;5.18;;
10335;SDS011;5213;53.548;9.930;2023-05-07T11:54:41;4.88;;;4.53;;
10335;SDS011;5213;53.548;9.930;2023-05-07T11:57:07;4.68;;;4.38;;
10335;SDS011;5213;53.548;9.930;2023-05-07T11:59:39;4.90;;;4.50;;
10335;SDS011;5213;53.548;9.930;2023-05-07T12:02:06;5.13;;;4.35;;
10335;SDS011;5213;53.548;9.930;2023-05-07T12:04:33;4.93;;;4.45;;
10335;SDS011;5213;53.548;9.930;2023-05-07T12:06:59;4.65;;;4.35;;
10335;SDS011;5213;53.548;9.930;2023-05-07T12:09:25;4.97;;;4.57;;
10335;SDS011;5213;53.548;9.930;2023-05-07T12:11:51;4.68;;;4.28;;
10335;SDS011;5213;53.548;9.930;2023-05-07T12:14:18;4.70;;;4.30;;
10335;SDS011;5213;53.548;9.930;2023-05-07T12:16:44;4.90;;;4.50;;
10335;SDS011;5213;53.548;9.930;2023-05-07T12:19:11;4.72;;;4.32;;
10335;SDS011;5213;53.548;9.930;2023-05-07T12:21:37;5.22;;;4.72;;
10335;SDS011;5213;53.548;9.930;2023-05-07T12:24:03;4.25;;;3.90;;
10335;SDS011;5213;53.548;9.930;2023-05-07T12:26:30;4.38;;;3.97;;
10335;SDS011;5213;53.548;9.930;2023-05-07T12:28:59;4.47;;;4.05;;
10335;SDS011;5213;53.548;9.930;2023-05-07T12:31:25;4.03;;;3.72;;
10335;SDS011;5213;53.548;9.930;2023-05-07T12:33:51;3.70;;;3.50;;
10335;SDS011;5213;53.548;9.930;2023-05-07T12:36:18;4.10;;;3.80;;
10335;SDS011;5213;53.548;9.930;2023-05-07T12:38:46;4.10;;;3.80;;
10335;SDS011;5213;53.548;9.930;2023-05-07T12:41:15;3.70;;;3.40;;
10335;SDS011;5213;53.548;9.930;2023-05-07T12:43:43;4.13;;;3.83;;
10335;SDS011;5213;53.548;9.930;2023-05-07T12:46:10;4.32;;;3.92;;
10335;SDS011;5213;53.548;9.930;2023-05-07T12:48:44;4.32;;;3.72;;
10335;SDS011;5213;53.548;9.930;2023-05-07T12:51:13;3.47;;;3.28;;
10335;SDS011;5213;53.548;9.930;2023-05-07T12:53:40;4.10;;;3.78;;
10335;SDS011;5213;53.548;9.930;2023-05-07T12:56:09;3.97;;;3.67;;
10335;SDS011;5213;53.548;9.930;2023-05-07T12:58:36;4.32;;;3.60;;
10335;SDS011;5213;53.548;9.930;2023-05-07T13:01:05;4.28;;;3.50;;
10335;SDS011;5213;53.548;9.930;2023-05-07T13:03:33;3.67;;;3.38;;
10335;SDS011;5213;53.548;9.930;2023-05-07T13:06:00;3.72;;;3.42;;
10335;SDS011;5213;53.548;9.930;2023-05-07T13:08:30;3.97;;;3.58;;
10335;SDS011;5213;53.548;9.930;2023-05-07T13:10:57;3.72;;;3.42;;
10335;SDS011;5213;53.548;9.930;2023-05-07T13:13:24;3.63;;;3.35;;
10335;SDS011;5213;53.548;9.930;2023-05-07T13:15:50;4.38;;;3.40;;
10335;SDS011;5213;53.548;9.930;2023-05-07T13:18:17;3.70;;;3.50;;
10335;SDS011;5213;53.548;9.930;2023-05-07T13:20:43;4.57;;;3.30;;
10335;SDS011;5213;53.548;9.930;2023-05-07T13:23:09;3.92;;;3.70;;
10335;SDS011;5213;53.548;9.930;2023-05-07T13:25:35;3.38;;;3.17;;
10335;SDS011;5213;53.548;9.930;2023-05-07T13:28:01;3.40;;;3.15;;
10335;SDS011;5213;53.548;9.930;2023-05-07T13:30:27;4.75;;;3.55;;
10335;SDS011;5213;53.548;9.930;2023-05-07T13:32:55;5.13;;;3.50;;
10335;SDS011;5213;53.548;9.930;2023-05-07T13:35:21;3.75;;;3.55;;
10335;SDS011;5213;53.548;9.930;2023-05-07T13:37:47;3.83;;;3.53;;
10335;SDS011;5213;53.548;9.930;2023-05-07T13:40:14;3.60;;;3.30;;
10335;SDS011;5213;53.548;9.930;2023-05-07T13:42:40;4.68;;;3.10;;
10335;SDS011;5213;53.548;9.930;2023-05-07T13:45:06;4.45;;;2.90;;
10335;SDS011;5213;53.548;9.930;2023-05-07T13:47:32;2.78;;;2.63;;
10335;SDS011;5213;53.548;9.930;2023-05-07T13:49:58;3.17;;;2.88;;
10335;SDS011;5213;53.548;9.930;2023-05-07T13:52:24;3.35;;;2.90;;
10335;SDS011;5213;53.548;9.930;2023-05-07T13:54:51;3.10;;;2.90;;
10335;SDS011;5213;53.548;9.930;2023-05-07T13:57:17;3.13;;;2.83;;
10335;SDS011;5213;53.548;9.930;2023-05-07T13:59:43;3.25;;;3.00;;
10335;SDS011;5213;53.548;9.930;2023-05-07T14:02:09;3.45;;;3.15;;
10335;SDS011;5213;53.548;9.930;2023-05-07T14:04:37;3.60;;;3.30;;
10335;SDS011;5213;53.548;9.930;2023-05-07T14:07:03;3.72;;;3.40;;
10335;SDS011;5213;53.548;9.930;2023-05-07T14:09:29;3.40;;;3.10;;
10335;SDS011;5213;53.548;9.930;2023-05-07T14:11:55;3.40;;;3.20;;
10335;SDS011;5213;53.548;9.930;2023-05-07T14:14:21;3.33;;;3.08;;
10335;SDS011;5213;53.548;9.930;2023-05-07T14:16:47;3.30;;;3.00;;
10335;SDS011;5213;53.548;9.930;2023-05-07T14:19:13;2.85;;;2.65;;
10335;SDS011;5213;53.548;9.930;2023-05-07T14:21:39;2.92;;;2.65;;
10335;SDS011;5213;53.548;9.930;2023-05-07T14:24:06;2.78;;;2.60;;
10335;SDS011;5213;53.548;9.930;2023-05-07T14:26:32;2.90;;;2.70;;
10335;SDS011;5213;53.548;9.930;2023-05-07T14:28:58;3.90;;;3.50;;
10335;SDS011;5213;53.548;9.930;2023-05-07T14:31:24;3.50;;;3.20;;
10335;SDS011;5213;53.548;9.930;2023-05-07T14:33:50;3.08;;;2.88;;
10335;SDS011;5213;53.548;9.930;2023-05-07T14:36:17;2.90;;;2.70;;
10335;SDS011;5213;53.548;9.930;2023-05-07T14:38:46;3.30;;;3.00;;
10335;SDS011;5213;53.548;9.930;2023-05-07T14:41:12;3.15;;;2.95;;
10335;SDS011;5213;53.548;9.930;2023-05-07T14:43:38;4.25;;;2.65;;
10335;SDS011;5213;53.548;9.930;2023-05-07T14:46:04;2.83;;;2.63;;
10335;SDS011;5213;53.548;9.930;2023-05-07T14:48:30;3.38;;;2.67;;
10335;SDS011;5213;53.548;9.930;2023-05-07T14:50:56;2.55;;;2.45;;
10335;SDS011;5213;53.548;9.930;2023-05-07T14:53:22;2.53;;;2.40;;
10335;SDS011;5213;53.548;9.930;2023-05-07T14:55:48;2.63;;;2.53;;
10335;SDS011;5213;53.548;9.930;2023-05-07T14:58:14;2.80;;;2.60;;
10335;SDS011;5213;53.548;9.930;2023-05-07T15:00:40;2.67;;;2.47;;
10335;SDS011;5213;53.548;9.930;2023-05-07T15:03:07;3.20;;;2.90;;
10335;SDS011;5213;53.548;9.930;2023-05-07T15:05:33;3.00;;;2.80;;
10335;SDS011;5213;53.548;9.930;2023-05-07T15:08:00;2.58;;;2.38;;
10335;SDS011;5213;53.548;9.930;2023-05-07T15:10:26;3.03;;;2.72;;
10335;SDS011;5213;53.548;9.930;2023-05-07T15:12:52;3.00;;;2.80;;
10335;SDS011;5213;53.548;9.930;2023-05-07T15:15:18;2.50;;;2.30;;
10335;SDS011;5213;53.548;9.930;2023-05-07T15:17:44;2.55;;;2.45;;
10335;SDS011;5213;53.548;9.930;2023-05-07T15:20:10;2.88;;;2.40;;